sensor_id;sensor_type;location;lat;lon;timestamp;P1;durP1;ratioP1;P2;durP2;ratioP2
15889;SDS011;8043;49.388;12.128;2023-04-16T00:03:34;6.47;;;3.75;;
15889;SDS011;8043;49.388;12.128;2023-04-16T00:08:37;8.10;;;4.30;;
15889;SDS011;8043;49.388;12.128;2023-04-16T00:13:40;7.33;;;4.07;;
15889;SDS011;8043;49.388;12.128;2023-04-16T00:18:43;7.90;;;4.37;;
15889;SDS011;8043;49.388;12.128;2023-04-16T00:23:46;6.93;;;3.70;;
15889;SDS011;8043;49.388;12.128;2023-04-16T00:28:48;9.57;;;4.17;;
15889;SDS011;8043;49.388;12.128;2023-04-16T00:33:50;11.47;;;5.20;;
15889;SDS011;8043;49.388;12.128;2023-04-16T00:38:53;8.57;;;4.33;;
15889;SDS011;8043;49.388;12.128;2023-04-16T00:43:56;8.70;;;4.53;;
15889;SDS011;8043;49.388;12.128;2023-04-16T00:48:59;11.93;;;5.03;;
15889;SDS011;8043;49.388;12.128;2023-04-16T00:54:02;7.50;;;4.57;;
15889;SDS011;8043;49.388;12.128;2023-04-16T00:59:04;11.10;;;5.63;;
15889;SDS011;8043;49.388;12.128;2023-04-16T01:04:07;9.67;;;4.67;;
15889;SDS011;8043;49.388;12.128;2023-04-16T01:09:09;8.63;;;4.37;;
15889;SDS011;8043;49.388;12.128;2023-04-16T01:14:12;8.20;;;4.03;;
15889;SDS011;8043;49.388;12.128;2023-04-16T01:19:14;10.53;;;4.80;;
15889;SDS011;8043;49.388;12.128;2023-04-16T01:24:16;9.53;;;4.70;;
15889;SDS011;8043;49.388;12.128;2023-04-16T01:29:19;10.50;;;4.90;;
15889;SDS011;8043;49.388;12.128;2023-04-16T01:34:21;10.50;;;5.10;;
15889;SDS011;8043;49.388;12.128;2023-04-16T01:39:24;9.80;;;5.13;;
15889;SDS011;8043;49.388;12.128;2023-04-16T01:44:26;11.07;;;5.40;;
15889;SDS011;8043;49.388;12.128;2023-04-16T01:49:30;14.27;;;6.13;;
15889;SDS011;8043;49.388;12.128;2023-04-16T01:54:33;10.83;;;5.57;;
15889;SDS011;8043;49.388;12.128;2023-04-16T01:59:35;11.80;;;5.83;;
15889;SDS011;8043;49.388;12.128;2023-04-16T02:04:38;10.17;;;5.33;;
15889;SDS011;8043;49.388;12.128;2023-04-16T02:09:41;11.73;;;5.47;;
15889;SDS011;8043;49.388;12.128;2023-04-16T02:14:43;12.40;;;5.30;;
15889;SDS011;8043;49.388;12.128;2023-04-16T02:19:46;9.10;;;4.77;;
15889;SDS011;8043;49.388;12.128;2023-04-16T02:24:48;11.43;;;5.63;;
15889;SDS011;8043;49.388;12.128;2023-04-16T02:29:51;12.20;;;6.23;;
15889;SDS011;8043;49.388;12.128;2023-04-16T02:34:53;8.90;;;4.20;;
15889;SDS011;8043;49.388;12.128;2023-04-16T02:39:56;10.37;;;4.93;;
15889;SDS011;8043;49.388;12.128;2023-04-16T02:44:59;11.03;;;4.70;;
15889;SDS011;8043;49.388;12.128;2023-04-16T02:50:01;9.67;;;4.47;;
15889;SDS011;8043;49.388;12.128;2023-04-16T02:55:04;11.47;;;4.97;;
15889;SDS011;8043;49.388;12.128;2023-04-16T03:00:07;11.37;;;5.27;;
15889;SDS011;8043;49.388;12.128;2023-04-16T03:05:09;9.10;;;3.87;;
15889;SDS011;8043;49.388;12.128;2023-04-16T03:10:12;8.03;;;5.13;;
15889;SDS011;8043;49.388;12.128;2023-04-16T03:15:14;7.67;;;4.50;;
15889;SDS011;8043;49.388;12.128;2023-04-16T03:20:16;9.43;;;4.87;;
15889;SDS011;8043;49.388;12.128;2023-04-16T03:25:19;10.10;;;4.97;;
15889;SDS011;8043;49.388;12.128;2023-04-16T03:30:21;11.40;;;4.93;;
15889;SDS011;8043;49.388;12.128;2023-04-16T03:35:23;8.57;;;4.47;;
15889;SDS011;8043;49.388;12.128;2023-04-16T03:40:25;10.93;;;5.17;;
15889;SDS011;8043;49.388;12.128;2023-04-16T03:45:28;15.30;;;6.07;;
15889;SDS011;8043;49.388;12.128;2023-04-16T03:50:30;13.13;;;5.00;;
15889;SDS011;8043;49.388;12.128;2023-04-16T03:55:35;9.87;;;4.10;;
15889;SDS011;8043;49.388;12.128;2023-04-16T04:00:40;10.63;;;5.00;;
15889;SDS011;8043;49.388;12.128;2023-04-16T04:05:43;9.10;;;4.97;;
15889;SDS011;8043;49.388;12.128;2023-04-16T04:10:46;9.40;;;4.80;;
15889;SDS011;8043;49.388;12.128;2023-04-16T04:15:50;10.23;;;4.63;;
15889;SDS011;8043;49.388;12.128;2023-04-16T04:20:52;12.03;;;5.87;;
15889;SDS011;8043;49.388;12.128;2023-04-16T04:25:54;9.37;;;4.27;;
15889;SDS011;8043;49.388;12.128;2023-04-16T04:30:57;10.63;;;4.23;;
15889;SDS011;8043;49.388;12.128;2023-04-16T04:35:59;9.83;;;4.80;;
15889;SDS011;8043;49.388;12.128;2023-04-16T04:41:01;9.50;;;5.47;;
15889;SDS011;8043;49.388;12.128;2023-04-16T04:46:04;9.83;;;4.53;;
15889;SDS011;8043;49.388;12.128;2023-04-16T04:51:06;8.53;;;4.43;;
15889;SDS011;8043;49.388;12.128;2023-04-16T04:56:08;11.60;;;5.10;;
15889;SDS011;8043;49.388;12.128;2023-04-16T05:01:10;13.70;;;6.10;;
15889;SDS011;8043;49.388;12.128;2023-04-16T05:06:12;7.80;;;4.17;;
15889;SDS011;8043;49.388;12.128;2023-04-16T05:11:20;9.60;;;4.00;;
15889;SDS011;8043;49.388;12.128;2023-04-16T05:16:30;7.47;;;3.73;;
15889;SDS011;8043;49.388;12.128;2023-04-16T05:21:32;9.90;;;4.40;;
15889;SDS011;8043;49.388;12.128;2023-04-16T05:26:35;9.53;;;5.13;;
15889;SDS011;8043;49.388;12.128;2023-04-16T05:31:37;8.00;;;3.90;;
15889;SDS011;8043;49.388;12.128;2023-04-16T05:36:39;12.13;;;4.47;;
15889;SDS011;8043;49.388;12.128;2023-04-16T05:41:41;7.97;;;4.80;;
15889;SDS011;8043;49.388;12.128;2023-04-16T05:46:48;13.60;;;5.63;;
15889;SDS011;8043;49.388;12.128;2023-04-16T05:51:50;8.87;;;5.23;;
15889;SDS011;8043;49.388;12.128;2023-04-16T05:56:53;11.00;;;5.67;;
15889;SDS011;8043;49.388;12.128;2023-04-16T06:01:56;12.73;;;6.17;;
15889;SDS011;8043;49.388;12.128;2023-04-16T06:06:59;10.00;;;6.07;;
15889;SDS011;8043;49.388;12.128;2023-04-16T06:12:01;12.83;;;6.93;;
15889;SDS011;8043;49.388;12.128;2023-04-16T06:17:04;11.17;;;6.03;;
15889;SDS011;8043;49.388;12.128;2023-04-16T06:22:06;11.00;;;5.73;;
15889;SDS011;8043;49.388;12.128;2023-04-16T06:27:09;11.67;;;5.47;;
15889;SDS011;8043;49.388;12.128;2023-04-16T06:32:11;12.20;;;5.13;;
15889;SDS011;8043;49.388;12.128;2023-04-16T06:37:13;9.33;;;4.93;;
15889;SDS011;8043;49.388;12.128;2023-04-16T06:42:16;10.70;;;5.07;;
15889;SDS011;8043;49.388;12.128;2023-04-16T06:47:18;10.63;;;4.87;;
15889;SDS011;8043;49.388;12.128;2023-04-16T06:52:21;11.27;;;5.37;;
15889;SDS011;8043;49.388;12.128;2023-04-16T06:57:23;10.77;;;5.10;;
15889;SDS011;8043;49.388;12.128;2023-04-16T07:02:26;10.50;;;5.80;;
15889;SDS011;8043;49.388;12.128;2023-04-16T07:07:28;15.03;;;6.40;;
15889;SDS011;8043;49.388;12.128;2023-04-16T07:12:31;10.83;;;5.33;;
15889;SDS011;8043;49.388;12.128;2023-04-16T07:17:33;10.70;;;5.23;;
15889;SDS011;8043;49.388;12.128;2023-04-16T07:22:35;12.20;;;5.60;;
15889;SDS011;8043;49.388;12.128;2023-04-16T07:27:38;9.57;;;4.83;;
15889;SDS011;8043;49.388;12.128;2023-04-16T07:32:40;9.07;;;3.67;;
15889;SDS011;8043;49.388;12.128;2023-04-16T07:37:48;7.17;;;3.87;;
15889;SDS011;8043;49.388;12.128;2023-04-16T07:42:51;9.33;;;4.30;;
15889;SDS011;8043;49.388;12.128;2023-04-16T07:47:53;11.43;;;5.13;;
15889;SDS011;8043;49.388;12.128;2023-04-16T07:52:55;13.80;;;5.67;;
15889;SDS011;8043;49.388;12.128;2023-04-16T07:57:58;11.43;;;4.80;;
15889;SDS011;8043;49.388;12.128;2023-04-16T08:03:00;12.07;;;5.90;;
15889;SDS011;8043;49.388;12.128;2023-04-16T08:08:03;13.80;;;5.57;;
15889;SDS011;8043;49.388;12.128;2023-04-16T08:13:05;14.63;;;6.17;;
15889;SDS011;8043;49.388;12.128;2023-04-16T08:18:07;15.03;;;5.83;;
15889;SDS011;8043;49.388;12.128;2023-04-16T08:23:11;14.57;;;6.47;;
15889;SDS011;8043;49.388;12.128;2023-04-16T08:28:13;20.43;;;9.70;;
15889;SDS011;8043;49.388;12.128;2023-04-16T08:33:16;13.70;;;5.90;;
15889;SDS011;8043;49.388;12.128;2023-04-16T08:38:18;11.07;;;4.50;;
15889;SDS011;8043;49.388;12.128;2023-04-16T08:43:20;8.50;;;4.33;;
15889;SDS011;8043;49.388;12.128;2023-04-16T08:48:24;8.70;;;3.47;;
15889;SDS011;8043;49.388;12.128;2023-04-16T08:53:48;9.73;;;4.27;;
15889;SDS011;8043;49.388;12.128;2023-04-16T08:58:43;7.17;;;3.63;;
15889;SDS011;8043;49.388;12.128;2023-04-16T09:03:48;9.23;;;4.27;;
15889;SDS011;8043;49.388;12.128;2023-04-16T09:08:51;7.47;;;3.93;;
15889;SDS011;8043;49.388;12.128;2023-04-16T09:13:54;7.60;;;3.80;;
15889;SDS011;8043;49.388;12.128;2023-04-16T09:18:57;8.27;;;3.57;;
15889;SDS011;8043;49.388;12.128;2023-04-16T09:23:59;8.80;;;3.90;;
15889;SDS011;8043;49.388;12.128;2023-04-16T09:29:02;7.13;;;3.73;;
15889;SDS011;8043;49.388;12.128;2023-04-16T09:34:05;8.83;;;3.97;;
15889;SDS011;8043;49.388;12.128;2023-04-16T09:39:08;7.47;;;3.50;;
15889;SDS011;8043;49.388;12.128;2023-04-16T09:44:14;6.97;;;3.50;;
15889;SDS011;8043;49.388;12.128;2023-04-16T09:49:16;5.05;;;2.70;;
15889;SDS011;8043;49.388;12.128;2023-04-16T09:54:19;2.37;;;1.63;;
15889;SDS011;8043;49.388;12.128;2023-04-16T09:59:22;6.57;;;2.60;;
15889;SDS011;8043;49.388;12.128;2023-04-16T10:04:25;4.93;;;3.00;;
15889;SDS011;8043;49.388;12.128;2023-04-16T10:09:30;4.07;;;2.70;;
15889;SDS011;8043;49.388;12.128;2023-04-16T10:14:38;2.60;;;1.83;;
15889;SDS011;8043;49.388;12.128;2023-04-16T10:19:40;4.85;;;2.58;;
15889;SDS011;8043;49.388;12.128;2023-04-16T10:24:43;4.77;;;2.50;;
15889;SDS011;8043;49.388;12.128;2023-04-16T10:29:46;4.50;;;2.17;;
15889;SDS011;8043;49.388;12.128;2023-04-16T10:34:50;3.43;;;2.03;;
15889;SDS011;8043;49.388;12.128;2023-04-16T10:39:52;4.00;;;2.23;;
15889;SDS011;8043;49.388;12.128;2023-04-16T10:44:58;3.33;;;2.27;;
15889;SDS011;8043;49.388;12.128;2023-04-16T10:50:00;4.20;;;2.10;;
15889;SDS011;8043;49.388;12.128;2023-04-16T10:55:03;4.10;;;1.70;;
15889;SDS011;8043;49.388;12.128;2023-04-16T11:00:20;2.90;;;1.60;;
15889;SDS011;8043;49.388;12.128;2023-04-16T11:05:24;2.43;;;1.87;;
15889;SDS011;8043;49.388;12.128;2023-04-16T11:10:32;2.70;;;1.67;;
15889;SDS011;8043;49.388;12.128;2023-04-16T11:15:37;3.57;;;2.00;;
15889;SDS011;8043;49.388;12.128;2023-04-16T11:20:40;4.03;;;1.90;;
15889;SDS011;8043;49.388;12.128;2023-04-16T11:25:43;2.37;;;1.50;;
15889;SDS011;8043;49.388;12.128;2023-04-16T11:30:45;3.20;;;2.00;;
15889;SDS011;8043;49.388;12.128;2023-04-16T11:35:55;10.87;;;5.10;;
15889;SDS011;8043;49.388;12.128;2023-04-16T11:41:00;4.43;;;2.30;;
15889;SDS011;8043;49.388;12.128;2023-04-16T11:46:04;3.97;;;2.47;;
15889;SDS011;8043;49.388;12.128;2023-04-16T11:51:07;3.10;;;2.03;;
15889;SDS011;8043;49.388;12.128;2023-04-16T11:56:10;5.10;;;2.63;;
15889;SDS011;8043;49.388;12.128;2023-04-16T12:01:13;2.70;;;1.80;;
15889;SDS011;8043;49.388;12.128;2023-04-16T12:06:18;3.13;;;1.87;;
15889;SDS011;8043;49.388;12.128;2023-04-16T12:11:20;3.67;;;2.33;;
15889;SDS011;8043;49.388;12.128;2023-04-16T12:16:24;3.17;;;2.07;;
15889;SDS011;8043;49.388;12.128;2023-04-16T12:21:37;3.57;;;2.23;;
15889;SDS011;8043;49.388;12.128;2023-04-16T12:26:43;4.07;;;2.20;;
15889;SDS011;8043;49.388;12.128;2023-04-16T12:31:48;2.97;;;2.20;;
15889;SDS011;8043;49.388;12.128;2023-04-16T12:37:05;4.17;;;2.80;;
15889;SDS011;8043;49.388;12.128;2023-04-16T12:42:09;4.37;;;2.10;;
15889;SDS011;8043;49.388;12.128;2023-04-16T12:47:12;3.83;;;1.73;;
15889;SDS011;8043;49.388;12.128;2023-04-16T12:52:15;2.57;;;2.10;;
15889;SDS011;8043;49.388;12.128;2023-04-16T12:57:18;3.83;;;2.03;;
15889;SDS011;8043;49.388;12.128;2023-04-16T13:02:21;3.67;;;1.90;;
15889;SDS011;8043;49.388;12.128;2023-04-16T13:07:24;3.80;;;2.20;;
15889;SDS011;8043;49.388;12.128;2023-04-16T13:12:27;4.47;;;2.67;;
15889;SDS011;8043;49.388;12.128;2023-04-16T13:17:30;4.30;;;2.70;;
15889;SDS011;8043;49.388;12.128;2023-04-16T13:22:33;6.33;;;4.00;;
15889;SDS011;8043;49.388;12.128;2023-04-16T13:27:35;4.73;;;2.30;;
15889;SDS011;8043;49.388;12.128;2023-04-16T13:32:38;4.13;;;2.40;;
15889;SDS011;8043;49.388;12.128;2023-04-16T13:37:41;3.57;;;2.07;;
15889;SDS011;8043;49.388;12.128;2023-04-16T13:42:44;5.87;;;2.37;;
15889;SDS011;8043;49.388;12.128;2023-04-16T13:47:47;3.70;;;2.20;;
15889;SDS011;8043;49.388;12.128;2023-04-16T13:52:50;3.67;;;2.00;;
15889;SDS011;8043;49.388;12.128;2023-04-16T13:57:52;3.63;;;2.20;;
15889;SDS011;8043;49.388;12.128;2023-04-16T14:02:55;3.00;;;1.80;;
15889;SDS011;8043;49.388;12.128;2023-04-16T14:08:03;3.53;;;1.70;;
15889;SDS011;8043;49.388;12.128;2023-04-16T14:13:02;2.37;;;1.57;;
15889;SDS011;8043;49.388;12.128;2023-04-16T14:18:04;2.60;;;1.47;;
15889;SDS011;8043;49.388;12.128;2023-04-16T14:23:06;1.73;;;1.50;;
15889;SDS011;8043;49.388;12.128;2023-04-16T14:28:08;3.13;;;2.03;;
15889;SDS011;8043;49.388;12.128;2023-04-16T14:33:11;5.43;;;2.77;;
15889;SDS011;8043;49.388;12.128;2023-04-16T14:38:16;5.20;;;2.27;;
15889;SDS011;8043;49.388;12.128;2023-04-16T14:43:19;3.07;;;1.90;;
15889;SDS011;8043;49.388;12.128;2023-04-16T14:48:21;3.13;;;2.17;;
15889;SDS011;8043;49.388;12.128;2023-04-16T14:53:23;3.43;;;1.50;;
15889;SDS011;8043;49.388;12.128;2023-04-16T14:58:26;5.27;;;1.90;;
15889;SDS011;8043;49.388;12.128;2023-04-16T15:03:29;2.53;;;1.70;;
15889;SDS011;8043;49.388;12.128;2023-04-16T15:08:32;3.00;;;2.10;;
15889;SDS011;8043;49.388;12.128;2023-04-16T15:13:35;3.13;;;2.03;;
15889;SDS011;8043;49.388;12.128;2023-04-16T15:18:37;2.97;;;1.80;;
15889;SDS011;8043;49.388;12.128;2023-04-16T15:23:39;1.80;;;1.57;;
15889;SDS011;8043;49.388;12.128;2023-04-16T15:28:42;3.87;;;2.83;;
15889;SDS011;8043;49.388;12.128;2023-04-16T15:33:44;3.60;;;2.00;;
15889;SDS011;8043;49.388;12.128;2023-04-16T15:38:47;5.67;;;2.60;;
15889;SDS011;8043;49.388;12.128;2023-04-16T15:43:49;2.87;;;2.00;;
15889;SDS011;8043;49.388;12.128;2023-04-16T15:48:51;4.83;;;3.03;;
15889;SDS011;8043;49.388;12.128;2023-04-16T15:53:53;3.40;;;2.00;;
15889;SDS011;8043;49.388;12.128;2023-04-16T15:58:57;3.80;;;2.10;;
15889;SDS011;8043;49.388;12.128;2023-04-16T16:03:59;3.13;;;2.10;;
15889;SDS011;8043;49.388;12.128;2023-04-16T16:09:01;2.93;;;1.77;;
15889;SDS011;8043;49.388;12.128;2023-04-16T16:14:04;3.33;;;2.00;;
15889;SDS011;8043;49.388;12.128;2023-04-16T16:19:06;4.67;;;2.40;;
15889;SDS011;8043;49.388;12.128;2023-04-16T16:24:09;3.50;;;2.23;;
15889;SDS011;8043;49.388;12.128;2023-04-16T16:29:11;5.77;;;2.30;;
15889;SDS011;8043;49.388;12.128;2023-04-16T16:34:13;3.08;;;2.10;;
15889;SDS011;8043;49.388;12.128;2023-04-16T16:39:17;5.10;;;2.50;;
15889;SDS011;8043;49.388;12.128;2023-04-16T16:44:20;4.17;;;2.37;;
15889;SDS011;8043;49.388;12.128;2023-04-16T16:49:23;4.07;;;2.60;;
15889;SDS011;8043;49.388;12.128;2023-04-16T16:54:27;4.10;;;2.47;;
15889;SDS011;8043;49.388;12.128;2023-04-16T16:59:29;4.73;;;2.70;;
15889;SDS011;8043;49.388;12.128;2023-04-16T17:04:32;10.87;;;8.27;;
15889;SDS011;8043;49.388;12.128;2023-04-16T17:09:34;5.57;;;3.93;;
15889;SDS011;8043;49.388;12.128;2023-04-16T17:14:38;5.93;;;3.60;;
15889;SDS011;8043;49.388;12.128;2023-04-16T17:19:40;6.40;;;3.53;;
15889;SDS011;8043;49.388;12.128;2023-04-16T17:24:43;3.10;;;1.87;;
15889;SDS011;8043;49.388;12.128;2023-04-16T17:29:46;2.43;;;1.67;;
15889;SDS011;8043;49.388;12.128;2023-04-16T17:34:48;3.63;;;2.43;;
15889;SDS011;8043;49.388;12.128;2023-04-16T17:39:50;3.23;;;2.27;;
15889;SDS011;8043;49.388;12.128;2023-04-16T17:44:52;7.00;;;3.13;;
15889;SDS011;8043;49.388;12.128;2023-04-16T17:49:55;4.27;;;2.27;;
15889;SDS011;8043;49.388;12.128;2023-04-16T17:54:57;3.27;;;1.73;;
15889;SDS011;8043;49.388;12.128;2023-04-16T18:00:03;2.43;;;1.50;;
15889;SDS011;8043;49.388;12.128;2023-04-16T18:05:08;1.37;;;1.20;;
15889;SDS011;8043;49.388;12.128;2023-04-16T18:10:11;1.63;;;1.10;;
15889;SDS011;8043;49.388;12.128;2023-04-16T18:15:16;1.77;;;1.17;;
15889;SDS011;8043;49.388;12.128;2023-04-16T18:20:19;1.43;;;1.03;;
15889;SDS011;8043;49.388;12.128;2023-04-16T18:25:23;3.07;;;1.30;;
15889;SDS011;8043;49.388;12.128;2023-04-16T18:30:25;2.10;;;1.30;;
15889;SDS011;8043;49.388;12.128;2023-04-16T18:35:28;1.60;;;1.13;;
15889;SDS011;8043;49.388;12.128;2023-04-16T18:40:34;2.63;;;1.20;;
15889;SDS011;8043;49.388;12.128;2023-04-16T18:45:37;1.73;;;1.40;;
15889;SDS011;8043;49.388;12.128;2023-04-16T18:50:41;4.07;;;2.43;;
15889;SDS011;8043;49.388;12.128;2023-04-16T18:55:45;5.17;;;2.50;;
15889;SDS011;8043;49.388;12.128;2023-04-16T19:00:51;2.30;;;1.80;;
15889;SDS011;8043;49.388;12.128;2023-04-16T19:06:06;7.17;;;3.97;;
15889;SDS011;8043;49.388;12.128;2023-04-16T19:11:10;2.43;;;1.60;;
15889;SDS011;8043;49.388;12.128;2023-04-16T19:16:13;2.20;;;1.30;;
15889;SDS011;8043;49.388;12.128;2023-04-16T19:21:15;3.23;;;1.57;;
15889;SDS011;8043;49.388;12.128;2023-04-16T19:26:19;2.17;;;1.40;;
15889;SDS011;8043;49.388;12.128;2023-04-16T19:31:21;2.13;;;1.40;;
15889;SDS011;8043;49.388;12.128;2023-04-16T19:36:26;2.00;;;1.33;;
15889;SDS011;8043;49.388;12.128;2023-04-16T19:41:30;2.80;;;1.23;;
15889;SDS011;8043;49.388;12.128;2023-04-16T19:46:33;1.77;;;1.30;;
15889;SDS011;8043;49.388;12.128;2023-04-16T19:51:36;1.90;;;1.43;;
15889;SDS011;8043;49.388;12.128;2023-04-16T19:56:39;3.83;;;1.33;;
15889;SDS011;8043;49.388;12.128;2023-04-16T20:01:41;2.97;;;1.40;;
15889;SDS011;8043;49.388;12.128;2023-04-16T20:06:44;1.93;;;1.30;;
15889;SDS011;8043;49.388;12.128;2023-04-16T20:11:49;1.20;;;0.90;;
15889;SDS011;8043;49.388;12.128;2023-04-16T20:16:53;3.63;;;1.80;;
15889;SDS011;8043;49.388;12.128;2023-04-16T20:21:55;1.90;;;1.17;;
15889;SDS011;8043;49.388;12.128;2023-04-16T20:26:58;4.10;;;2.27;;
15889;SDS011;8043;49.388;12.128;2023-04-16T20:32:01;3.53;;;1.93;;
15889;SDS011;8043;49.388;12.128;2023-04-16T20:37:03;2.03;;;1.50;;
15889;SDS011;8043;49.388;12.128;2023-04-16T20:42:06;2.30;;;1.73;;
15889;SDS011;8043;49.388;12.128;2023-04-16T20:47:10;2.90;;;1.57;;
15889;SDS011;8043;49.388;12.128;2023-04-16T20:52:15;3.23;;;2.00;;
15889;SDS011;8043;49.388;12.128;2023-04-16T20:57:18;3.20;;;1.63;;
15889;SDS011;8043;49.388;12.128;2023-04-16T21:02:21;2.17;;;1.50;;
15889;SDS011;8043;49.388;12.128;2023-04-16T21:07:24;2.83;;;2.03;;
15889;SDS011;8043;49.388;12.128;2023-04-16T21:12:27;2.30;;;1.53;;
15889;SDS011;8043;49.388;12.128;2023-04-16T21:17:30;2.63;;;1.50;;
15889;SDS011;8043;49.388;12.128;2023-04-16T21:22:32;5.30;;;2.37;;
15889;SDS011;8043;49.388;12.128;2023-04-16T21:27:34;1.97;;;1.40;;
15889;SDS011;8043;49.388;12.128;2023-04-16T21:32:37;3.07;;;1.83;;
15889;SDS011;8043;49.388;12.128;2023-04-16T21:37:39;3.20;;;1.93;;
15889;SDS011;8043;49.388;12.128;2023-04-16T21:42:42;3.13;;;1.87;;
15889;SDS011;8043;49.388;12.128;2023-04-16T21:47:44;2.70;;;1.70;;
15889;SDS011;8043;49.388;12.128;2023-04-16T21:52:46;1.73;;;1.40;;
15889;SDS011;8043;49.388;12.128;2023-04-16T21:57:49;3.50;;;1.93;;
15889;SDS011;8043;49.388;12.128;2023-04-16T22:02:52;3.37;;;1.83;;
15889;SDS011;8043;49.388;12.128;2023-04-16T22:07:56;3.50;;;1.73;;
15889;SDS011;8043;49.388;12.128;2023-04-16T22:12:59;3.37;;;1.90;;
15889;SDS011;8043;49.388;12.128;2023-04-16T22:18:01;4.00;;;2.20;;
15889;SDS011;8043;49.388;12.128;2023-04-16T22:23:04;3.47;;;1.90;;
15889;SDS011;8043;49.388;12.128;2023-04-16T22:28:07;2.10;;;1.73;;
15889;SDS011;8043;49.388;12.128;2023-04-16T22:33:10;1.73;;;1.30;;
15889;SDS011;8043;49.388;12.128;2023-04-16T22:38:12;1.70;;;1.40;;
15889;SDS011;8043;49.388;12.128;2023-04-16T22:43:15;2.00;;;1.50;;
15889;SDS011;8043;49.388;12.128;2023-04-16T22:48:18;2.30;;;1.90;;
15889;SDS011;8043;49.388;12.128;2023-04-16T22:53:22;2.83;;;1.90;;
15889;SDS011;8043;49.388;12.128;2023-04-16T22:58:24;2.00;;;1.70;;
15889;SDS011;8043;49.388;12.128;2023-04-16T23:03:26;3.20;;;1.90;;
15889;SDS011;8043;49.388;12.128;2023-04-16T23:08:29;4.43;;;1.70;;
15889;SDS011;8043;49.388;12.128;2023-04-16T23:13:31;2.23;;;1.33;;
15889;SDS011;8043;49.388;12.128;2023-04-16T23:18:33;2.33;;;1.80;;
15889;SDS011;8043;49.388;12.128;2023-04-16T23:23:36;3.17;;;1.87;;
15889;SDS011;8043;49.388;12.128;2023-04-16T23:28:38;3.17;;;1.57;;
15889;SDS011;8043;49.388;12.128;2023-04-16T23:33:40;4.57;;;2.00;;
15889;SDS011;8043;49.388;12.128;2023-04-16T23:38:43;2.97;;;1.53;;
15889;SDS011;8043;49.388;12.128;2023-04-16T23:43:45;2.90;;;1.50;;
15889;SDS011;8043;49.388;12.128;2023-04-16T23:48:47;3.60;;;2.13;;
15889;SDS011;8043;49.388;12.128;2023-04-16T23:53:49;4.93;;;2.33;;
15889;SDS011;8043;49.388;12.128;2023-04-16T23:58:51;4.60;;;2.03;;
